createdAt,value
2023-05-24T00:01:04.238Z,14.12
2023-05-24T00:02:03.812Z,14.12
2023-05-24T00:03:03.657Z,14.12
2023-05-24T00:04:03.818Z,14.31
2023-05-24T00:05:04.138Z,14.44
2023-05-24T00:06:03.789Z,14.50
2023-05-24T00:07:04.337Z,14.56
2023-05-24T00:09:03.518Z,14.44
2023-05-24T00:10:03.776Z,14.38
2023-05-24T00:11:04.171Z,14.25
2023-05-24T00:12:04.086Z,14.25
2023-05-24T00:14:03.848Z,14.12
2023-05-24T00:15:03.761Z,14.12
2023-05-24T00:16:03.799Z,14.06
2023-05-24T00:17:03.927Z,14.06
2023-05-24T00:18:04.123Z,14.06
2023-05-24T00:20:05.804Z,14.06
2023-05-24T00:21:04.190Z,14.06
2023-05-24T00:23:04.420Z,14.00
2023-05-24T00:24:04.009Z,14.00
2023-05-24T00:25:04.008Z,14.00
2023-05-24T00:26:03.999Z,14.00
2023-05-24T00:28:03.531Z,13.94
2023-05-24T00:29:04.157Z,14.00
2023-05-24T00:30:04.337Z,14.00
2023-05-24T00:32:04.474Z,14.00
2023-05-24T00:33:04.194Z,14.00
2023-05-24T00:36:03.603Z,13.94
2023-05-24T00:37:04.262Z,13.94
2023-05-24T00:38:03.764Z,13.88
2023-05-24T00:40:04.162Z,13.88
2023-05-24T00:41:03.840Z,13.88
2023-05-24T00:44:03.559Z,13.94
2023-05-24T00:45:04.328Z,13.94
2023-05-24T00:48:04.230Z,14.19
2023-05-24T00:49:03.922Z,14.25
2023-05-24T00:50:03.530Z,14.19
2023-05-24T00:51:03.443Z,14.19
2023-05-24T00:52:03.604Z,14.12
2023-05-24T00:53:03.723Z,14.19
2023-05-24T00:55:04.250Z,14.19
2023-05-24T00:57:03.773Z,14.25
2023-05-24T00:58:04.497Z,14.31
2023-05-24T00:59:04.020Z,14.31
2023-05-24T01:00:03.652Z,14.31
2023-05-24T01:01:04.386Z,14.31
2023-05-24T01:02:04.204Z,14.19
2023-05-24T01:03:03.973Z,14.12
2023-05-24T01:04:03.825Z,14.06
2023-05-24T01:06:04.247Z,13.88
2023-05-24T01:07:03.871Z,13.81
2023-05-24T01:08:04.256Z,13.75
2023-05-24T01:10:03.538Z,13.56
2023-05-24T01:11:04.120Z,13.56
2023-05-24T01:12:04.248Z,13.50
2023-05-24T01:13:04.730Z,13.62
2023-05-24T01:14:03.852Z,13.69
2023-05-24T01:16:04.439Z,13.69
2023-05-24T01:17:04.327Z,13.62
2023-05-24T01:19:03.856Z,13.50
2023-05-24T01:20:04.508Z,13.50
2023-05-24T01:21:04.189Z,13.44
2023-05-24T01:22:04.765Z,13.44
2023-05-24T01:23:03.616Z,13.38
2023-05-24T01:24:04.264Z,13.31
2023-05-24T01:25:03.828Z,13.31
2023-05-24T01:26:04.407Z,13.25
2023-05-24T01:27:04.102Z,13.19
2023-05-24T01:28:03.695Z,13.25
2023-05-24T01:29:03.533Z,13.25
2023-05-24T01:30:03.521Z,13.31
2023-05-24T01:31:03.551Z,13.31
2023-05-24T01:32:04.084Z,13.31
2023-05-24T01:34:03.700Z,13.19
2023-05-24T01:35:04.328Z,13.12
2023-05-24T01:36:03.856Z,13.12
2023-05-24T01:39:04.165Z,12.94
2023-05-24T01:40:03.857Z,13.00
2023-05-24T01:42:04.406Z,13.06
2023-05-24T01:45:04.017Z,13.00
2023-05-24T01:47:04.241Z,13.12
2023-05-24T01:48:04.364Z,12.94
2023-05-24T01:49:03.698Z,12.94
2023-05-24T01:50:03.697Z,12.94
2023-05-24T01:51:04.182Z,12.75
2023-05-24T01:52:03.876Z,12.62
2023-05-24T01:54:04.095Z,12.81
2023-05-24T01:55:03.688Z,12.88
2023-05-24T01:57:04.427Z,12.81
2023-05-24T01:58:04.022Z,12.88
2023-05-24T02:00:03.856Z,12.75
2023-05-24T02:02:03.832Z,12.81
2023-05-24T02:03:03.905Z,12.81
2023-05-24T02:04:03.532Z,12.75
2023-05-24T02:06:03.773Z,12.62
2023-05-24T02:07:04.323Z,12.44
2023-05-24T02:08:03.837Z,12.31
2023-05-24T02:09:04.367Z,12.19
2023-05-24T02:10:04.434Z,12.19
2023-05-24T02:11:03.924Z,12.12
2023-05-24T02:13:03.699Z,12.00
2023-05-24T02:14:03.624Z,11.94
2023-05-24T02:15:03.776Z,12.00
2023-05-24T02:16:04.414Z,12.06
2023-05-24T02:17:04.183Z,11.94
2023-05-24T02:18:04.201Z,11.94
2023-05-24T02:19:03.791Z,11.94
2023-05-24T02:21:03.802Z,12.06
2023-05-24T02:22:03.773Z,12.06
2023-05-24T02:23:03.690Z,12.06
2023-05-24T02:25:04.416Z,12.12
2023-05-24T02:26:03.939Z,12.00
2023-05-24T02:27:03.532Z,12.12
2023-05-24T02:29:04.177Z,12.06
2023-05-24T02:30:04.308Z,12.00
2023-05-24T02:31:04.294Z,12.00
2023-05-24T02:32:04.337Z,12.00
2023-05-24T02:33:04.317Z,12.06
2023-05-24T02:34:03.944Z,12.06
2023-05-24T02:35:04.093Z,12.06
2023-05-24T02:37:03.537Z,12.00
2023-05-24T02:38:04.088Z,12.06
2023-05-24T02:39:04.107Z,12.06
2023-05-24T02:40:03.607Z,12.00
2023-05-24T02:41:04.092Z,12.00
2023-05-24T02:43:04.270Z,12.00
2023-05-24T02:44:03.943Z,12.00
2023-05-24T02:45:03.922Z,12.00
2023-05-24T02:46:04.521Z,11.81
2023-05-24T02:47:04.417Z,11.81
2023-05-24T02:48:04.586Z,11.75
2023-05-24T02:49:04.027Z,11.75
2023-05-24T02:51:04.090Z,12.00
2023-05-24T02:52:03.700Z,11.88
2023-05-24T02:53:04.247Z,12.00
2023-05-24T02:54:03.767Z,12.19
2023-05-24T02:55:03.777Z,12.31
2023-05-24T02:56:04.239Z,12.31
2023-05-24T02:57:04.178Z,12.38
2023-05-24T02:58:04.241Z,12.44
2023-05-24T02:59:04.251Z,12.38
2023-05-24T03:00:03.777Z,12.38
2023-05-24T03:02:03.651Z,12.00
2023-05-24T03:03:03.835Z,12.06
2023-05-24T03:04:04.107Z,12.06
2023-05-24T03:06:03.755Z,11.94
2023-05-24T03:07:03.843Z,11.94
2023-05-24T03:08:03.684Z,11.75
2023-05-24T03:09:03.846Z,11.75
2023-05-24T03:11:04.338Z,11.75
2023-05-24T03:13:03.448Z,11.69
2023-05-24T03:14:04.010Z,11.62
2023-05-24T03:16:03.854Z,11.62
2023-05-24T03:17:03.523Z,11.56
2023-05-24T03:18:04.244Z,11.56
2023-05-24T03:19:04.002Z,11.50
2023-05-24T03:20:04.575Z,11.50
2023-05-24T03:22:04.103Z,11.44
2023-05-24T03:23:05.064Z,11.44
2023-05-24T03:24:03.696Z,11.38
2023-05-24T03:25:05.243Z,11.44
2023-05-24T03:26:04.009Z,11.50
2023-05-24T03:27:03.621Z,11.56
2023-05-24T03:29:03.602Z,11.25
2023-05-24T03:30:03.693Z,11.06
2023-05-24T03:32:04.245Z,10.88
2023-05-24T03:33:03.878Z,10.69
2023-05-24T03:35:04.416Z,10.31
2023-05-24T03:36:03.919Z,10.25
2023-05-24T03:37:04.017Z,10.19
2023-05-24T03:39:04.530Z,10.12
2023-05-24T03:40:04.100Z,10.06
2023-05-24T03:41:03.766Z,10.00
2023-05-24T03:43:04.767Z,9.94
2023-05-24T03:45:04.240Z,9.81
2023-05-24T03:46:04.284Z,9.81
2023-05-24T03:47:04.021Z,9.75
2023-05-24T03:48:03.717Z,9.75
2023-05-24T03:49:03.642Z,9.75
2023-05-24T03:50:04.437Z,9.69
2023-05-24T03:51:04.108Z,9.69
2023-05-24T03:52:03.718Z,9.69
2023-05-24T03:53:04.497Z,9.62
2023-05-24T03:54:04.496Z,9.62
2023-05-24T03:56:04.434Z,9.62
2023-05-24T03:57:04.018Z,9.56
2023-05-24T03:58:04.007Z,9.56
2023-05-24T03:59:03.770Z,9.56
2023-05-24T04:01:04.376Z,9.50
2023-05-24T04:02:03.949Z,9.50
2023-05-24T04:03:04.195Z,9.50
2023-05-24T04:04:04.000Z,9.50
2023-05-24T04:05:03.775Z,9.44
2023-05-24T04:06:04.278Z,9.44
2023-05-24T04:07:03.808Z,9.44
2023-05-24T04:08:04.506Z,9.44
2023-05-24T04:09:03.916Z,9.44
2023-05-24T04:10:04.098Z,9.44
2023-05-24T04:12:04.492Z,9.44
2023-05-24T04:14:03.538Z,9.44
2023-05-24T04:15:04.242Z,9.44
2023-05-24T04:16:03.699Z,9.44
2023-05-24T04:17:03.956Z,9.44
2023-05-24T04:18:04.293Z,9.44
2023-05-24T04:19:04.744Z,9.44
2023-05-24T04:20:03.749Z,9.44
2023-05-24T04:21:03.780Z,9.44
2023-05-24T04:22:04.319Z,9.44
2023-05-24T04:23:03.927Z,9.44
2023-05-24T04:25:04.828Z,9.44
2023-05-24T04:27:03.606Z,9.94
2023-05-24T04:28:04.248Z,10.25
2023-05-24T04:29:04.221Z,10.50
2023-05-24T04:32:03.612Z,11.38
2023-05-24T04:33:04.325Z,11.19
2023-05-24T04:34:04.131Z,10.94
2023-05-24T04:35:04.002Z,10.75
2023-05-24T04:36:04.093Z,10.62
2023-05-24T04:38:04.264Z,10.44
2023-05-24T04:39:04.351Z,10.38
2023-05-24T04:41:03.858Z,10.25
2023-05-24T04:42:04.415Z,10.19
2023-05-24T04:44:04.084Z,10.19
2023-05-24T04:45:04.089Z,10.19
2023-05-24T04:46:04.230Z,10.19
2023-05-24T04:47:03.997Z,10.12
2023-05-24T04:49:04.340Z,10.12
2023-05-24T04:51:03.611Z,10.12
2023-05-24T04:52:04.182Z,10.12
2023-05-24T04:53:03.783Z,10.44
2023-05-24T04:54:04.421Z,10.81
2023-05-24T04:55:03.870Z,11.12
2023-05-24T04:56:03.934Z,11.31
2023-05-24T04:58:04.324Z,11.56
2023-05-24T04:59:03.889Z,11.50
2023-05-24T05:00:03.864Z,11.62
2023-05-24T05:01:04.010Z,11.56
2023-05-24T05:02:04.295Z,11.69
2023-05-24T05:03:04.043Z,11.81
2023-05-24T05:04:03.843Z,11.94
2023-05-24T05:06:04.259Z,11.69
2023-05-24T05:07:03.783Z,11.56
2023-05-24T05:08:04.418Z,11.44
2023-05-24T05:09:04.326Z,11.31
2023-05-24T05:10:04.455Z,11.19
2023-05-24T05:11:04.028Z,11.06
2023-05-24T05:12:03.781Z,11.06
2023-05-24T05:13:04.329Z,11.00
2023-05-24T05:15:03.839Z,10.94
2023-05-24T05:16:03.977Z,11.00
2023-05-24T05:19:04.245Z,11.00
2023-05-24T05:21:03.535Z,11.00
2023-05-24T05:22:04.253Z,11.00
2023-05-24T05:23:04.019Z,11.06
2023-05-24T05:24:04.018Z,11.06
2023-05-24T05:25:03.516Z,11.06
2023-05-24T05:26:04.083Z,11.06
2023-05-24T05:27:04.333Z,11.06
2023-05-24T05:29:03.942Z,11.44
2023-05-24T05:31:04.091Z,11.88
2023-05-24T05:32:04.029Z,12.06
2023-05-24T05:33:04.250Z,12.25
2023-05-24T05:34:03.785Z,12.38
2023-05-24T05:35:04.325Z,12.25
2023-05-24T05:36:03.842Z,12.12
2023-05-24T05:37:04.335Z,12.06
2023-05-24T05:39:04.254Z,12.56
2023-05-24T05:41:03.690Z,13.38
2023-05-24T05:43:04.329Z,13.06
2023-05-24T05:45:04.410Z,13.38
2023-05-24T05:46:04.450Z,13.56
2023-05-24T05:47:04.162Z,13.38
2023-05-24T05:48:04.315Z,13.62
2023-05-24T05:50:03.535Z,14.38
2023-05-24T05:51:04.119Z,14.56
2023-05-24T05:52:04.114Z,14.62
2023-05-24T05:53:03.696Z,14.19
2023-05-24T05:55:04.093Z,13.62
2023-05-24T05:57:04.242Z,13.56
2023-05-24T05:58:03.919Z,13.38
2023-05-24T05:59:04.204Z,13.38
2023-05-24T06:00:04.222Z,13.50
2023-05-24T06:01:04.008Z,13.56
2023-05-24T06:03:04.274Z,13.69
2023-05-24T06:04:04.090Z,13.75
2023-05-24T06:06:03.619Z,13.94
2023-05-24T06:07:04.259Z,14.00
2023-05-24T06:08:03.845Z,14.19
2023-05-24T06:09:03.998Z,14.19
2023-05-24T06:10:04.018Z,14.12
2023-05-24T06:12:04.178Z,14.12
2023-05-24T06:14:03.840Z,14.00
2023-05-24T06:16:04.434Z,14.19
2023-05-24T06:18:03.817Z,14.38
2023-05-24T06:19:06.203Z,14.38
2023-05-24T06:20:04.180Z,14.25
2023-05-24T06:21:03.924Z,14.25
2023-05-24T06:22:03.957Z,14.25
2023-05-24T06:23:04.416Z,14.12
2023-05-24T06:24:04.017Z,14.25
2023-05-24T06:26:04.493Z,14.31
2023-05-24T06:27:05.376Z,14.25
2023-05-24T06:29:04.253Z,14.19
2023-05-24T06:30:03.713Z,14.12
2023-05-24T06:31:03.569Z,14.12
2023-05-24T06:33:04.193Z,14.19
2023-05-24T06:34:04.743Z,13.94
2023-05-24T06:35:03.941Z,14.00
2023-05-24T06:38:04.181Z,13.94
2023-05-24T06:40:04.163Z,13.56
2023-05-24T06:41:04.099Z,13.56
2023-05-24T06:44:04.420Z,13.56
2023-05-24T06:45:04.146Z,13.50
2023-05-24T06:46:03.796Z,13.62
2023-05-24T06:48:04.233Z,13.56
2023-05-24T06:50:04.354Z,13.75
2023-05-24T06:51:04.098Z,13.75
2023-05-24T06:54:04.336Z,14.12
2023-05-24T06:55:04.343Z,14.12
2023-05-24T06:56:04.017Z,14.44
2023-05-24T06:57:04.087Z,14.69
2023-05-24T06:58:03.926Z,14.94
2023-05-24T07:00:03.534Z,14.62
2023-05-24T07:01:04.281Z,14.69
2023-05-24T07:02:04.614Z,14.81
2023-05-24T07:03:03.716Z,14.88
2023-05-24T07:04:04.270Z,14.94
2023-05-24T07:05:04.294Z,15.06
2023-05-24T07:06:04.506Z,14.94
2023-05-24T07:07:04.193Z,14.88
2023-05-24T07:08:03.857Z,14.94
2023-05-24T07:09:03.928Z,14.94
2023-05-24T07:10:03.936Z,15.00
2023-05-24T07:11:03.810Z,15.06
2023-05-24T07:12:03.983Z,15.06
2023-05-24T07:14:03.691Z,15.44
2023-05-24T07:15:04.258Z,15.44
2023-05-24T07:16:03.692Z,15.31
2023-05-24T07:17:03.653Z,15.31
2023-05-24T07:18:04.068Z,15.44
2023-05-24T07:19:04.815Z,15.56
2023-05-24T07:20:04.047Z,15.56
2023-05-24T07:21:04.419Z,15.50
2023-05-24T07:22:03.951Z,15.50
2023-05-24T07:24:04.172Z,15.44
2023-05-24T07:25:03.935Z,15.62
2023-05-24T07:26:04.021Z,15.81
2023-05-24T07:27:04.026Z,15.75
2023-05-24T07:29:04.429Z,16.00
2023-05-24T07:31:03.541Z,15.94
2023-05-24T07:32:04.138Z,15.88
2023-05-24T07:33:03.903Z,15.94
2023-05-24T07:34:04.095Z,16.00
2023-05-24T07:37:04.349Z,16.25
2023-05-24T07:39:03.522Z,16.31
2023-05-24T07:40:04.285Z,16.38
2023-05-24T07:41:03.855Z,16.56
2023-05-24T07:43:04.311Z,16.44
2023-05-24T07:46:03.546Z,16.38
2023-05-24T07:47:04.290Z,16.44
2023-05-24T07:48:03.962Z,16.44
2023-05-24T07:49:04.423Z,16.31
2023-05-24T07:50:04.176Z,16.31
2023-05-24T07:51:04.193Z,16.25
2023-05-24T07:52:03.783Z,16.31
2023-05-24T07:54:04.253Z,16.25
2023-05-24T07:56:03.938Z,16.38
2023-05-24T07:57:03.539Z,16.44
2023-05-24T07:59:03.859Z,16.56
2023-05-24T08:00:03.785Z,16.62
2023-05-24T08:01:03.936Z,16.94
2023-05-24T08:02:03.690Z,17.19
2023-05-24T08:03:04.470Z,17.25
2023-05-24T08:04:04.389Z,17.12
2023-05-24T08:06:03.533Z,16.88
2023-05-24T08:07:04.065Z,16.88
2023-05-24T08:08:03.696Z,16.81
2023-05-24T08:09:04.266Z,16.81
2023-05-24T08:11:04.189Z,16.62
2023-05-24T08:12:03.785Z,16.75
2023-05-24T08:13:03.794Z,16.75
2023-05-24T08:14:04.013Z,16.75
2023-05-24T08:15:03.621Z,16.88
2023-05-24T08:16:03.713Z,17.00
2023-05-24T08:18:04.379Z,17.19
2023-05-24T08:19:03.954Z,17.38
2023-05-24T08:20:03.829Z,17.56
2023-05-24T08:21:03.529Z,17.69
2023-05-24T08:22:04.190Z,17.69
2023-05-24T08:23:04.247Z,17.69
2023-05-24T08:24:06.119Z,17.81
2023-05-24T08:26:03.702Z,17.62
2023-05-24T08:27:04.279Z,17.62
2023-05-24T08:29:04.480Z,17.75
2023-05-24T08:30:04.100Z,17.81
2023-05-24T08:31:04.250Z,17.94
2023-05-24T08:32:04.236Z,18.00
2023-05-24T08:34:04.090Z,18.06
2023-05-24T08:35:21.435Z,17.94
2023-05-24T08:36:04.429Z,17.94
2023-05-24T08:39:04.161Z,18.31
2023-05-24T08:41:03.557Z,18.31
2023-05-24T08:42:09.639Z,18.25
2023-05-24T08:45:03.715Z,18.25
2023-05-24T08:46:04.302Z,18.00
2023-05-24T08:47:04.022Z,18.00
2023-05-24T08:48:04.096Z,18.00
2023-05-24T08:49:04.107Z,18.00
2023-05-24T08:50:03.859Z,18.00
2023-05-24T08:52:04.536Z,18.19
2023-05-24T08:53:04.023Z,18.31
2023-05-24T08:54:03.622Z,18.44
2023-05-24T08:55:04.337Z,18.62
2023-05-24T08:56:07.018Z,18.62
2023-05-24T08:57:04.024Z,18.81
2023-05-24T08:58:03.622Z,18.94
2023-05-24T08:59:03.537Z,19.12
2023-05-24T09:01:04.128Z,19.38
2023-05-24T09:02:04.054Z,19.44
2023-05-24T09:03:04.017Z,19.62
2023-05-24T09:04:04.321Z,19.75
2023-05-24T09:06:04.140Z,19.88
2023-05-24T09:07:04.179Z,19.88
2023-05-24T09:09:03.774Z,19.88
2023-05-24T09:10:04.496Z,19.88
2023-05-24T09:12:03.951Z,20.00
2023-05-24T09:13:04.214Z,20.12
2023-05-24T09:14:03.862Z,20.12
2023-05-24T09:15:04.458Z,20.00
2023-05-24T09:17:03.816Z,19.81
2023-05-24T09:18:04.468Z,19.69
2023-05-24T09:21:04.289Z,19.50
2023-05-24T09:22:04.004Z,19.50
2023-05-24T09:24:04.100Z,19.25
2023-05-24T09:26:04.169Z,19.12
2023-05-24T09:27:03.781Z,19.19
2023-05-24T09:29:04.176Z,19.31
2023-05-24T09:30:03.795Z,19.38
2023-05-24T09:31:06.529Z,19.31
2023-05-24T09:33:03.831Z,19.31
2023-05-24T09:34:04.438Z,19.31
2023-05-24T09:35:04.096Z,19.31
2023-05-24T09:36:03.689Z,19.31
2023-05-24T09:37:04.432Z,19.25
2023-05-24T09:40:04.171Z,19.44
2023-05-24T09:41:04.243Z,19.38
2023-05-24T09:42:04.414Z,19.31
2023-05-24T09:45:03.542Z,19.50
2023-05-24T09:46:04.162Z,19.56
2023-05-24T09:47:04.191Z,19.62
2023-05-24T09:49:04.055Z,19.62
2023-05-24T09:51:03.700Z,19.44
2023-05-24T09:53:03.549Z,19.50
2023-05-24T09:54:04.173Z,19.38
2023-05-24T09:56:04.015Z,19.56
2023-05-24T09:57:04.864Z,19.50
2023-05-24T09:58:04.084Z,19.44
2023-05-24T09:59:04.255Z,19.25
2023-05-24T10:00:04.287Z,19.31
2023-05-24T10:01:04.110Z,19.19
2023-05-24T10:02:03.531Z,19.19
2023-05-24T10:03:04.268Z,19.06
2023-05-24T10:05:03.776Z,19.19
2023-05-24T10:06:03.779Z,19.25
2023-05-24T10:07:04.420Z,19.25
2023-05-24T10:09:04.105Z,19.44
2023-05-24T10:10:06.045Z,19.38
2023-05-24T10:11:03.526Z,19.44
2023-05-24T10:13:04.358Z,19.75
2023-05-24T10:14:04.015Z,19.94
2023-05-24T10:15:04.374Z,19.69
2023-05-24T10:17:04.057Z,19.69
2023-05-24T10:18:03.808Z,19.56
2023-05-24T10:19:03.995Z,19.50
2023-05-24T10:20:03.649Z,19.44
2023-05-24T10:21:04.506Z,19.31
2023-05-24T10:22:03.709Z,19.12
2023-05-24T10:23:04.278Z,18.94
2023-05-24T10:24:03.960Z,18.81
2023-05-24T10:25:04.022Z,18.69
2023-05-24T10:26:04.005Z,18.75
2023-05-24T10:27:04.215Z,18.69
2023-05-24T10:28:04.244Z,18.69
2023-05-24T10:29:03.855Z,18.62
2023-05-24T10:30:04.605Z,18.56
2023-05-24T10:31:03.682Z,18.62
2023-05-24T10:32:04.007Z,18.62
2023-05-24T10:33:03.651Z,18.56
2023-05-24T10:34:08.097Z,18.50
2023-05-24T10:36:05.137Z,18.62
2023-05-24T10:37:04.189Z,18.62
2023-05-24T10:39:04.013Z,18.75
2023-05-24T10:40:03.630Z,18.81
2023-05-24T10:41:03.802Z,18.88
2023-05-24T10:42:03.477Z,18.75
2023-05-24T10:43:03.633Z,18.81
2023-05-24T10:45:04.351Z,19.19
2023-05-24T10:46:04.128Z,19.38
2023-05-24T10:49:04.129Z,19.44
2023-05-24T10:50:03.688Z,19.50
2023-05-24T10:51:03.772Z,19.44
2023-05-24T10:52:03.693Z,19.31
2023-05-24T10:54:03.932Z,19.12
2023-05-24T10:55:04.598Z,19.06
2023-05-24T10:56:04.249Z,19.06
2023-05-24T10:58:03.770Z,19.00
2023-05-24T10:59:03.522Z,19.00
2023-05-24T11:00:04.625Z,18.94
2023-05-24T11:01:04.098Z,18.94
2023-05-24T11:02:03.947Z,18.88
2023-05-24T11:03:03.645Z,19.00
2023-05-24T11:04:04.242Z,19.00
2023-05-24T11:05:03.891Z,19.12
2023-05-24T11:06:04.101Z,19.06
2023-05-24T11:08:04.264Z,19.19
2023-05-24T11:09:03.769Z,19.31
2023-05-24T11:10:03.938Z,19.44
2023-05-24T11:11:15.360Z,19.44
2023-05-24T11:12:03.792Z,19.50
2023-05-24T11:13:04.245Z,19.44
2023-05-24T11:15:04.014Z,19.56
2023-05-24T11:16:03.957Z,19.56
2023-05-24T11:17:03.948Z,19.69
2023-05-24T11:19:03.696Z,20.06
2023-05-24T11:20:03.904Z,20.00
2023-05-24T11:21:03.684Z,19.88
2023-05-24T11:22:03.628Z,19.88
2023-05-24T11:23:03.929Z,19.94
2023-05-24T11:24:03.622Z,20.00
2023-05-24T11:25:03.458Z,19.94
2023-05-24T11:26:03.611Z,19.94
2023-05-24T11:28:04.365Z,19.81
2023-05-24T11:30:04.268Z,19.62
2023-05-24T11:32:03.999Z,19.44
2023-05-24T11:33:04.077Z,19.38
2023-05-24T11:34:03.773Z,19.38
2023-05-24T11:35:05.386Z,19.44
2023-05-24T11:36:04.089Z,19.31
2023-05-24T11:37:04.113Z,19.31
2023-05-24T11:38:03.685Z,19.19
2023-05-24T11:40:04.265Z,19.00
2023-05-24T11:41:04.408Z,18.94
2023-05-24T11:44:03.628Z,18.50
2023-05-24T11:45:04.181Z,18.50
2023-05-24T11:47:03.873Z,18.81
2023-05-24T11:48:03.509Z,19.00
2023-05-24T11:49:03.849Z,18.94
2023-05-24T11:50:04.003Z,18.94
2023-05-24T11:51:03.854Z,18.94
2023-05-24T11:52:04.169Z,18.94
2023-05-24T11:53:03.690Z,19.19
2023-05-24T11:54:04.009Z,19.31
2023-05-24T11:55:03.779Z,19.38
2023-05-24T11:56:03.786Z,19.31
2023-05-24T11:58:04.337Z,19.31
2023-05-24T12:00:03.535Z,19.19
2023-05-24T12:02:04.279Z,18.94
2023-05-24T12:03:03.766Z,18.88
2023-05-24T12:05:04.460Z,19.12
2023-05-24T12:06:03.632Z,19.19
2023-05-24T12:08:04.343Z,19.44
2023-05-24T12:09:04.108Z,19.50
2023-05-24T12:10:03.857Z,19.31
2023-05-24T12:12:04.180Z,19.44
2023-05-24T12:13:03.776Z,19.56
2023-05-24T12:14:04.426Z,19.69
2023-05-24T12:15:04.409Z,20.31
2023-05-24T12:16:04.026Z,20.25
2023-05-24T12:17:03.802Z,20.38
2023-05-24T12:18:03.751Z,20.50
2023-05-24T12:19:09.658Z,20.50
2023-05-24T12:21:03.530Z,20.00
2023-05-24T12:22:04.496Z,19.94
2023-05-24T12:23:04.020Z,19.75
2023-05-24T12:25:04.099Z,19.50
2023-05-24T12:26:03.694Z,19.44
2023-05-24T12:27:03.721Z,19.31
2023-05-24T12:28:04.501Z,19.25
2023-05-24T12:30:04.100Z,19.12
2023-05-24T12:31:04.228Z,19.12
2023-05-24T12:32:04.019Z,19.12
2023-05-24T12:33:03.646Z,19.12
2023-05-24T12:34:04.331Z,19.12
2023-05-24T12:35:04.424Z,19.06
2023-05-24T12:37:04.007Z,19.56
2023-05-24T12:39:03.542Z,19.88
2023-05-24T12:40:04.159Z,20.12
2023-05-24T12:42:03.952Z,20.88
2023-05-24T12:43:03.607Z,20.94
2023-05-24T12:44:04.417Z,20.88
2023-05-24T12:46:04.450Z,20.38
2023-05-24T12:48:04.162Z,20.00
2023-05-24T12:49:03.830Z,20.00
2023-05-24T12:50:04.409Z,19.56
2023-05-24T12:52:03.585Z,19.50
2023-05-24T12:53:04.195Z,19.44
2023-05-24T12:55:04.252Z,19.38
2023-05-24T12:56:03.853Z,19.38
2023-05-24T12:57:04.462Z,19.25
2023-05-24T12:58:04.500Z,19.25
2023-05-24T12:59:03.984Z,19.25
2023-05-24T13:00:03.686Z,19.12
2023-05-24T13:01:04.308Z,19.00
2023-05-24T13:03:03.981Z,18.88
2023-05-24T13:04:04.498Z,18.81
2023-05-24T13:05:04.431Z,18.69
2023-05-24T13:06:04.412Z,18.62
2023-05-24T13:07:04.102Z,18.56
2023-05-24T13:08:03.927Z,18.44
2023-05-24T13:09:03.965Z,18.31
2023-05-24T13:10:04.257Z,18.25
2023-05-24T13:11:04.334Z,18.25
2023-05-24T13:12:04.340Z,18.38
2023-05-24T13:13:03.773Z,18.31
2023-05-24T13:14:04.416Z,18.31
2023-05-24T13:15:04.247Z,18.38
2023-05-24T13:17:04.084Z,18.50
2023-05-24T13:18:03.882Z,18.56
2023-05-24T13:19:04.334Z,18.62
2023-05-24T13:20:03.961Z,18.69
2023-05-24T13:21:03.649Z,18.75
2023-05-24T13:22:04.278Z,18.75
2023-05-24T13:23:03.918Z,18.69
2023-05-24T13:24:03.531Z,18.62
2023-05-24T13:25:04.255Z,18.56
2023-05-24T13:26:04.022Z,18.56
2023-05-24T13:28:03.528Z,18.75
2023-05-24T13:30:04.518Z,19.12
2023-05-24T13:31:04.199Z,19.19
2023-05-24T13:33:04.378Z,19.00
2023-05-24T13:34:04.012Z,18.94
2023-05-24T13:35:06.704Z,19.00
2023-05-24T13:36:04.496Z,19.12
2023-05-24T13:37:03.556Z,19.31
2023-05-24T13:38:03.528Z,19.38
2023-05-24T13:39:14.677Z,19.44
2023-05-24T13:40:04.336Z,19.44
2023-05-24T13:41:04.337Z,19.25
2023-05-24T13:42:04.479Z,19.00
2023-05-24T13:44:04.094Z,18.75
2023-05-24T13:46:03.665Z,18.75
2023-05-24T13:47:04.297Z,18.62
2023-05-24T13:48:04.383Z,18.50
2023-05-24T13:49:04.171Z,18.31
2023-05-24T13:50:03.733Z,18.25
2023-05-24T13:51:03.798Z,18.19
2023-05-24T13:53:04.451Z,18.19
2023-05-24T13:55:03.699Z,18.06
2023-05-24T13:56:04.246Z,18.00
2023-05-24T13:59:04.708Z,18.00
2023-05-24T14:01:03.611Z,18.00
2023-05-24T14:02:04.378Z,18.00
2023-05-24T14:03:03.813Z,17.94
2023-05-24T14:04:04.409Z,17.94
2023-05-24T14:05:17.791Z,17.88
2023-05-24T14:07:04.183Z,17.81
2023-05-24T14:08:03.731Z,17.81
2023-05-24T14:09:03.526Z,17.81
2023-05-24T14:10:04.516Z,17.75
2023-05-24T14:11:04.189Z,17.69
2023-05-24T14:13:23.097Z,17.69
2023-05-24T14:16:03.684Z,18.06
2023-05-24T14:17:04.349Z,18.19
2023-05-24T14:19:04.182Z,18.50
2023-05-24T14:20:03.746Z,18.56
2023-05-24T14:21:03.924Z,18.62
2023-05-24T14:22:04.330Z,18.69
2023-05-24T14:23:04.356Z,18.81
2023-05-24T14:24:03.946Z,19.06
2023-05-24T14:25:03.940Z,19.06
2023-05-24T14:27:04.345Z,18.69
2023-05-24T14:30:03.534Z,18.31
2023-05-24T14:31:04.195Z,18.19
2023-05-24T14:32:04.306Z,18.12
2023-05-24T14:34:03.609Z,17.81
2023-05-24T14:35:04.252Z,17.69
2023-05-24T14:37:04.326Z,17.44
2023-05-24T14:39:03.458Z,17.31
2023-05-24T14:40:04.296Z,17.31
2023-05-24T14:41:03.937Z,17.31
2023-05-24T14:43:03.526Z,17.31
2023-05-24T14:46:04.234Z,17.44
2023-05-24T14:47:03.861Z,17.50
2023-05-24T14:48:04.406Z,17.50
2023-05-24T14:49:04.260Z,17.50
2023-05-24T14:50:03.804Z,17.50
2023-05-24T14:51:04.257Z,17.56
2023-05-24T14:53:04.409Z,17.62
2023-05-24T14:54:04.013Z,17.62
2023-05-24T14:55:03.946Z,17.69
2023-05-24T14:57:03.532Z,17.75
2023-05-24T14:58:04.013Z,17.75
2023-05-24T14:59:03.529Z,17.81
2023-05-24T15:00:04.260Z,18.06
2023-05-24T15:01:04.309Z,18.12
2023-05-24T15:02:04.507Z,18.06
2023-05-24T15:04:03.444Z,18.19
2023-05-24T15:05:04.266Z,18.31
2023-05-24T15:07:04.409Z,18.88
2023-05-24T15:08:04.418Z,19.06
2023-05-24T15:10:03.522Z,19.19
2023-05-24T15:11:03.609Z,19.19
2023-05-24T15:12:04.183Z,19.12
2023-05-24T15:13:04.218Z,19.06
2023-05-24T15:14:03.861Z,18.94
2023-05-24T15:15:03.606Z,18.81
2023-05-24T15:17:04.349Z,18.56
2023-05-24T15:18:04.120Z,18.38
2023-05-24T15:21:04.330Z,18.19
2023-05-24T15:22:04.412Z,18.19
2023-05-24T15:24:03.700Z,18.19
2023-05-24T15:25:04.145Z,18.12
2023-05-24T15:26:04.173Z,18.06
2023-05-24T15:27:03.695Z,18.06
2023-05-24T15:28:04.257Z,18.00
2023-05-24T15:29:03.773Z,17.94
2023-05-24T15:30:03.524Z,18.00
2023-05-24T15:32:04.280Z,17.94
2023-05-24T15:33:03.863Z,17.94
2023-05-24T15:34:03.616Z,17.88
2023-05-24T15:35:03.778Z,17.81
2023-05-24T15:37:04.506Z,17.75
2023-05-24T15:38:03.936Z,17.69
2023-05-24T15:40:04.176Z,17.75
2023-05-24T15:41:03.610Z,17.69
2023-05-24T15:42:04.422Z,17.69
2023-05-24T15:45:04.100Z,17.62
2023-05-24T15:46:03.718Z,17.62
2023-05-24T15:47:03.936Z,17.62
2023-05-24T15:48:04.385Z,17.62
2023-05-24T15:49:04.100Z,17.69
2023-05-24T15:50:03.622Z,17.88
2023-05-24T15:51:57.829Z,18.06
2023-05-24T15:52:04.902Z,18.12
2023-05-24T15:54:04.246Z,17.88
2023-05-24T15:55:04.331Z,17.81
2023-05-24T15:58:03.997Z,18.19
2023-05-24T16:00:04.250Z,18.06
2023-05-24T16:02:05.257Z,18.00
2023-05-24T16:03:04.151Z,17.94
2023-05-24T16:04:04.361Z,17.81
2023-05-24T16:06:03.996Z,17.62
2023-05-24T16:08:03.626Z,17.50
2023-05-24T16:10:04.171Z,17.38
2023-05-24T16:11:03.801Z,17.38
2023-05-24T16:12:04.292Z,17.31
2023-05-24T16:13:03.821Z,17.31
2023-05-24T16:14:04.449Z,17.31
2023-05-24T16:15:04.052Z,17.25
2023-05-24T16:16:03.553Z,17.19
2023-05-24T16:17:05.434Z,17.12
2023-05-24T16:19:03.789Z,17.12
2023-05-24T16:20:04.272Z,17.06
2023-05-24T16:21:03.937Z,17.12
2023-05-24T16:22:04.541Z,17.12
2023-05-24T16:23:04.166Z,17.12
2023-05-24T16:24:03.759Z,17.12
2023-05-24T16:25:03.771Z,17.12
2023-05-24T16:27:04.231Z,17.12
2023-05-24T16:28:03.954Z,17.19
2023-05-24T16:29:04.097Z,17.25
2023-05-24T16:30:03.692Z,17.44
2023-05-24T16:31:04.345Z,17.69
2023-05-24T16:32:04.364Z,17.88
2023-05-24T16:34:04.166Z,18.12
2023-05-24T16:35:04.435Z,18.06
2023-05-24T16:37:04.042Z,17.75
2023-05-24T16:38:03.521Z,17.69
2023-05-24T16:39:03.531Z,17.56
2023-05-24T16:40:04.016Z,17.44
2023-05-24T16:41:03.543Z,17.38
2023-05-24T16:42:04.114Z,17.25
2023-05-24T16:43:03.691Z,17.19
2023-05-24T16:44:03.611Z,17.19